Airfield :
LOGIN :

Register | Disclaimer

   EN    FR    IT 

 










Legend :    VFR   Marginal VFR   IFR   Intensive IFR   Very Intensive IFR
Visi :
Ceiling :
>= 8 km
>= 3000ft
5 to 8 km
1000 to 3000 ft
1500m to 5 km
500 to 1000 ft
800 to 1500m
200 to 500 ft
< 800m
< 200 ft
Symbols :   Thunderstorms  Fog  Heavy snow  Heavy precipitations  Wind > 20 kt
SIGMETs :     Misc.  Thunderstorms  Icing  Turbulence  Mountain Waves  Volcanic Ashes






- Airport Elevation : 18 ft
- IATA code : AJA


LFKJ - Ajaccio

CURRENT METAR :
  • 211900Z AUTO 07004KT 040V100 9999 FEW042 BKN064 OVC074 12/10 Q1011 TEMPO SHRA SCT020TCU BKN030

EXPIRED METARs :
  • 211830Z AUTO 04005KT 9999 BKN066 OVC078 12/11 Q1011 TEMPO SHRA SCT020TCU BKN030
  • 211800Z AUTO 09003KT 040V130 9999 BKN039/// BKN052/// OVC072/// ///CB 13/11 Q1011 TEMPO SHRA
  • 211730Z AUTO VRB03KT 9999 FEW034/// SCT046/// OVC058/// ///CB 13/11 Q1011 TEMPO SHRA
  • 211700Z AUTO 22010KT 9999 FEW021/// OVC056/// ///TCU 14/10 Q1011 TEMPO SHRA
  • 211630Z AUTO 19008KT 150V210 9999 FEW041/// BKN060/// BKN074/// ///CB 14/09 Q1010 TEMPO SHRA

TAF TAF LFKJ
Valid from the 21 at 15:00 until the 22 at 15:00 UTC


211400Z 2115/2215 20005KT 9999 FEW050
TEMPO 2116/2207 SHRA SCT020TCU BKN030
ATIS : +33 4 95 23 59 85



MET'MAP, your aeronautical weather chart ! - Copyright ORBIFLY December 2007 - Disclaimer

ORBIFLY MET'MAP TEAM :

Programming & Development : Alexandra Zaïnal
Concept & Development : Baudouin d'Aumeries
Co-Development & Prog : Marc-Olivier Méhu
Technical & hardware support : Manuel Goepfert

Contact : metmap@orbifly.com




SOURCES & CREDITS :

   NOAA